Impacts METAR Board
IDs:

KEDC - Austin/Executive Arp, TX, US

Updated at: 1400 UTC 13 Dec 2019
Potential Impact None Slight Moderate High
Time 13/02Z 13/03Z 13/04Z 13/05Z 13/06Z 13/07Z 13/08Z 13/09Z 13/10Z 13/11Z 13/12Z 13/13Z 13/14Z
Temp50 50 48 48 46 46 45 45 43 41 41 41 45
Dewpt46 46 46 46 45 45 45 41 41 41 39 39 41
Altim30.10 30.09 30.09 30.07 30.06 30.04 30.01 30.01 29.99 29.97 29.96 29.97 29.96
VIS10 10 10 10 5 8 5 10 4 9 10 9 5
CIG-- -- -- -- -- -- -- -- -- -- -- -- --
CoverCLRCLRCLRCLRCLRCLRCLRCLRCLRCLRCLRCLRCLR
FltCatVFRVFRVFRVFRMVFRVFRMVFRVFRMVFRVFRVFRVFRMVFR
WX--------BR--BR--BR------BR
WDir17019023019025020019000200180180200
WSpd5 6 6 5 6 4 7 0 0 3 5 5 5
WGst-- -- -- -- -- -- -- -- -- -- -- -- --
Raw hourly METARs
KEDC 130155Z AUTO 17005KT 10SM CLR 10/08 A3010 RMK AO2
KEDC 130255Z AUTO 19006KT 10SM CLR 10/08 A3009 RMK AO2
KEDC 130355Z AUTO 23006KT 10SM CLR 09/08 A3009 RMK AO2
KEDC 130455Z AUTO 19005KT 10SM CLR 09/08 A3007 RMK AO2
KEDC 130555Z AUTO 25006KT 5SM BR CLR 08/07 A3006 RMK AO2
KEDC 130655Z AUTO 20004KT 8SM CLR 08/07 A3004 RMK AO2
KEDC 130755Z AUTO 19007KT 5SM BR CLR 07/07 A3001 RMK AO2
KEDC 130855Z AUTO 00000KT 10SM CLR 07/05 A3001 RMK AO2
KEDC 130955Z AUTO 00000KT 4SM BR CLR 06/05 A2999 RMK AO2
KEDC 131055Z AUTO 20003KT 9SM CLR 05/05 A2997 RMK AO2
KEDC 131155Z AUTO 18005KT 10SM CLR 05/04 A2996 RMK AO2
KEDC 131255Z AUTO 18005KT 9SM CLR 05/04 A2997 RMK AO2
KEDC 131355Z AUTO 20005KT 5SM BR CLR 07/05 A2996 RMK AO2



Page loaded:  14:23 UTC  |   06:23 AM Pacific  |   07:23 AM Mountain  |   08:23 AM Central  |   09:23 AM Eastern

 

ADVISORIES

FORECASTS

FORECASTS

OBSERVATIONS

USER TOOLS

ABOUT US